sensor_id;sensor_type;location;lat;lon;timestamp;temperature;humidity
13744;DHT22;6943;52.368;9.966;2022-12-01T00:01:55;4.50;99.90
13744;DHT22;6943;52.368;9.966;2022-12-01T00:04:21;4.60;99.90
13744;DHT22;6943;52.368;9.966;2022-12-01T00:06:46;4.60;99.90
13744;DHT22;6943;52.368;9.966;2022-12-01T00:09:12;4.70;99.90
13744;DHT22;6943;52.368;9.966;2022-12-01T00:11:56;4.80;99.90
13744;DHT22;6943;52.368;9.966;2022-12-01T00:14:21;4.80;99.90
13744;DHT22;6943;52.368;9.966;2022-12-01T00:16:47;4.70;99.90
13744;DHT22;6943;52.368;9.966;2022-12-01T00:19:13;4.70;99.90
13744;DHT22;6943;52.368;9.966;2022-12-01T00:21:38;4.60;99.90
13744;DHT22;6943;52.368;9.966;2022-12-01T00:24:04;4.60;99.90
13744;DHT22;6943;52.368;9.966;2022-12-01T00:26:29;4.50;99.90
13744;DHT22;6943;52.368;9.966;2022-12-01T00:28:57;4.40;99.90
13744;DHT22;6943;52.368;9.966;2022-12-01T00:31:23;4.40;99.90
13744;DHT22;6943;52.368;9.966;2022-12-01T00:33:49;4.50;99.90
13744;DHT22;6943;52.368;9.966;2022-12-01T00:36:15;4.40;99.90
13744;DHT22;6943;52.368;9.966;2022-12-01T00:38:41;4.50;99.90
13744;DHT22;6943;52.368;9.966;2022-12-01T00:41:06;4.40;99.90
13744;DHT22;6943;52.368;9.966;2022-12-01T00:43:32;4.40;99.90
13744;DHT22;6943;52.368;9.966;2022-12-01T00:45:57;4.40;99.90
13744;DHT22;6943;52.368;9.966;2022-12-01T00:48:23;4.40;99.90
13744;DHT22;6943;52.368;9.966;2022-12-01T00:50:50;4.30;99.90
13744;DHT22;6943;52.368;9.966;2022-12-01T00:53:16;4.40;99.90
13744;DHT22;6943;52.368;9.966;2022-12-01T00:55:42;4.40;99.90
13744;DHT22;6943;52.368;9.966;2022-12-01T00:58:07;4.20;99.90
13744;DHT22;6943;52.368;9.966;2022-12-01T01:00:33;4.30;99.90
13744;DHT22;6943;52.368;9.966;2022-12-01T01:02:59;4.30;99.90
13744;DHT22;6943;52.368;9.966;2022-12-01T01:05:24;4.30;99.90
13744;DHT22;6943;52.368;9.966;2022-12-01T01:07:50;4.40;99.90
13744;DHT22;6943;52.368;9.966;2022-12-01T01:10:15;4.30;99.90
13744;DHT22;6943;52.368;9.966;2022-12-01T01:12:41;4.20;99.90
13744;DHT22;6943;52.368;9.966;2022-12-01T01:15:06;4.30;99.90
13744;DHT22;6943;52.368;9.966;2022-12-01T01:17:32;4.30;99.90
13744;DHT22;6943;52.368;9.966;2022-12-01T01:19:58;4.30;99.90
13744;DHT22;6943;52.368;9.966;2022-12-01T01:22:24;4.30;99.90
13744;DHT22;6943;52.368;9.966;2022-12-01T01:24:49;4.30;99.90
13744;DHT22;6943;52.368;9.966;2022-12-01T01:27:15;4.30;99.90
13744;DHT22;6943;52.368;9.966;2022-12-01T01:29:40;4.30;99.90
13744;DHT22;6943;52.368;9.966;2022-12-01T01:32:07;4.30;99.90
13744;DHT22;6943;52.368;9.966;2022-12-01T01:34:32;4.20;99.90
13744;DHT22;6943;52.368;9.966;2022-12-01T01:36:58;4.20;99.90
13744;DHT22;6943;52.368;9.966;2022-12-01T01:39:23;4.30;99.90
13744;DHT22;6943;52.368;9.966;2022-12-01T01:41:48;4.30;99.90
13744;DHT22;6943;52.368;9.966;2022-12-01T01:44:49;4.30;99.90
13744;DHT22;6943;52.368;9.966;2022-12-01T01:49:47;4.30;99.90
13744;DHT22;6943;52.368;9.966;2022-12-01T01:52:13;4.20;99.90
13744;DHT22;6943;52.368;9.966;2022-12-01T01:54:43;4.20;99.90
13744;DHT22;6943;52.368;9.966;2022-12-01T01:57:11;4.20;99.90
13744;DHT22;6943;52.368;9.966;2022-12-01T01:59:45;4.10;99.90
13744;DHT22;6943;52.368;9.966;2022-12-01T02:02:12;4.10;99.90
13744;DHT22;6943;52.368;9.966;2022-12-01T02:04:41;4.20;99.90
13744;DHT22;6943;52.368;9.966;2022-12-01T02:07:11;4.20;99.90
13744;DHT22;6943;52.368;9.966;2022-12-01T02:09:37;4.30;99.90
13744;DHT22;6943;52.368;9.966;2022-12-01T02:17:36;4.20;99.90
13744;DHT22;6943;52.368;9.966;2022-12-01T02:31:42;4.10;99.90
13744;DHT22;6943;52.368;9.966;2022-12-01T02:40:25;4.00;99.90
13744;DHT22;6943;52.368;9.966;2022-12-01T02:48:00;3.80;99.90
13744;DHT22;6943;52.368;9.966;2022-12-01T02:50:28;3.70;99.90
13744;DHT22;6943;52.368;9.966;2022-12-01T02:52:56;3.70;99.90
13744;DHT22;6943;52.368;9.966;2022-12-01T02:55:21;3.70;99.90
13744;DHT22;6943;52.368;9.966;2022-12-01T02:57:47;3.70;99.90
13744;DHT22;6943;52.368;9.966;2022-12-01T03:00:13;3.60;99.90
13744;DHT22;6943;52.368;9.966;2022-12-01T03:05:55;3.50;99.90
13744;DHT22;6943;52.368;9.966;2022-12-01T03:08:31;3.50;99.90
13744;DHT22;6943;52.368;9.966;2022-12-01T03:11:01;3.50;99.90
13744;DHT22;6943;52.368;9.966;2022-12-01T03:16:26;3.50;99.90
13744;DHT22;6943;52.368;9.966;2022-12-01T03:19:06;3.40;99.90
13744;DHT22;6943;52.368;9.966;2022-12-01T03:21:38;3.40;99.90
13744;DHT22;6943;52.368;9.966;2022-12-01T03:24:17;3.40;99.90
13744;DHT22;6943;52.368;9.966;2022-12-01T03:26:52;3.40;99.90
13744;DHT22;6943;52.368;9.966;2022-12-01T03:29:24;3.40;99.90
13744;DHT22;6943;52.368;9.966;2022-12-01T03:31:54;3.40;99.90
13744;DHT22;6943;52.368;9.966;2022-12-01T03:34:30;3.50;99.90
13744;DHT22;6943;52.368;9.966;2022-12-01T03:37:01;3.40;99.90
13744;DHT22;6943;52.368;9.966;2022-12-01T03:39:31;3.40;99.90
13744;DHT22;6943;52.368;9.966;2022-12-01T03:42:12;3.40;99.90
13744;DHT22;6943;52.368;9.966;2022-12-01T03:44:45;3.30;99.90
13744;DHT22;6943;52.368;9.966;2022-12-01T03:47:17;3.30;99.90
13744;DHT22;6943;52.368;9.966;2022-12-01T03:49:43;3.30;99.90
13744;DHT22;6943;52.368;9.966;2022-12-01T03:55:16;3.20;99.90
13744;DHT22;6943;52.368;9.966;2022-12-01T03:58:10;3.20;99.90
13744;DHT22;6943;52.368;9.966;2022-12-01T04:00:37;3.20;99.90
13744;DHT22;6943;52.368;9.966;2022-12-01T04:03:03;3.10;99.90
13744;DHT22;6943;52.368;9.966;2022-12-01T04:05:30;3.10;99.90
13744;DHT22;6943;52.368;9.966;2022-12-01T04:07:57;3.00;99.90
13744;DHT22;6943;52.368;9.966;2022-12-01T04:10:22;3.00;99.90
13744;DHT22;6943;52.368;9.966;2022-12-01T04:12:48;3.10;99.90
13744;DHT22;6943;52.368;9.966;2022-12-01T04:15:14;3.10;99.90
13744;DHT22;6943;52.368;9.966;2022-12-01T04:17:43;3.20;99.90
13744;DHT22;6943;52.368;9.966;2022-12-01T04:20:11;3.10;99.90
13744;DHT22;6943;52.368;9.966;2022-12-01T04:22:37;3.00;99.90
13744;DHT22;6943;52.368;9.966;2022-12-01T04:25:04;3.00;99.90
13744;DHT22;6943;52.368;9.966;2022-12-01T04:27:29;2.90;99.90
13744;DHT22;6943;52.368;9.966;2022-12-01T04:29:55;2.90;99.90
13744;DHT22;6943;52.368;9.966;2022-12-01T04:32:20;2.80;99.90
13744;DHT22;6943;52.368;9.966;2022-12-01T04:34:46;2.80;99.90
13744;DHT22;6943;52.368;9.966;2022-12-01T04:37:11;2.80;99.90
13744;DHT22;6943;52.368;9.966;2022-12-01T04:39:37;2.80;99.90
13744;DHT22;6943;52.368;9.966;2022-12-01T04:42:04;2.80;99.90
13744;DHT22;6943;52.368;9.966;2022-12-01T04:44:29;2.90;99.90
13744;DHT22;6943;52.368;9.966;2022-12-01T04:46:55;2.90;99.90
13744;DHT22;6943;52.368;9.966;2022-12-01T04:49:21;2.90;99.90
13744;DHT22;6943;52.368;9.966;2022-12-01T04:51:47;2.90;99.90
13744;DHT22;6943;52.368;9.966;2022-12-01T04:54:14;2.90;99.90
13744;DHT22;6943;52.368;9.966;2022-12-01T04:56:40;2.80;99.90
13744;DHT22;6943;52.368;9.966;2022-12-01T04:59:06;2.70;99.90
13744;DHT22;6943;52.368;9.966;2022-12-01T05:01:31;2.70;99.90
13744;DHT22;6943;52.368;9.966;2022-12-01T05:03:57;2.80;99.90
13744;DHT22;6943;52.368;9.966;2022-12-01T05:06:24;2.80;99.90
13744;DHT22;6943;52.368;9.966;2022-12-01T05:08:53;2.90;99.90
13744;DHT22;6943;52.368;9.966;2022-12-01T05:11:19;2.80;99.90
13744;DHT22;6943;52.368;9.966;2022-12-01T05:13:46;2.80;99.90
13744;DHT22;6943;52.368;9.966;2022-12-01T05:16:21;2.70;99.90
13744;DHT22;6943;52.368;9.966;2022-12-01T05:18:55;2.70;99.90
13744;DHT22;6943;52.368;9.966;2022-12-01T05:21:42;2.60;99.90
13744;DHT22;6943;52.368;9.966;2022-12-01T05:24:08;2.60;99.90
13744;DHT22;6943;52.368;9.966;2022-12-01T05:26:34;2.70;99.90
13744;DHT22;6943;52.368;9.966;2022-12-01T05:29:00;2.60;99.90
13744;DHT22;6943;52.368;9.966;2022-12-01T05:31:25;2.60;99.90
13744;DHT22;6943;52.368;9.966;2022-12-01T05:33:51;2.60;99.90
13744;DHT22;6943;52.368;9.966;2022-12-01T05:36:16;2.60;99.90
13744;DHT22;6943;52.368;9.966;2022-12-01T05:38:42;2.60;99.90
13744;DHT22;6943;52.368;9.966;2022-12-01T05:41:07;2.70;99.90
13744;DHT22;6943;52.368;9.966;2022-12-01T05:43:33;2.70;99.90
13744;DHT22;6943;52.368;9.966;2022-12-01T05:45:59;2.60;99.90
13744;DHT22;6943;52.368;9.966;2022-12-01T05:48:24;2.60;99.90
13744;DHT22;6943;52.368;9.966;2022-12-01T05:50:50;2.50;99.90
13744;DHT22;6943;52.368;9.966;2022-12-01T05:53:16;2.50;99.90
13744;DHT22;6943;52.368;9.966;2022-12-01T05:55:41;2.50;99.90
13744;DHT22;6943;52.368;9.966;2022-12-01T05:58:07;2.50;99.90
13744;DHT22;6943;52.368;9.966;2022-12-01T06:00:33;2.50;99.90
13744;DHT22;6943;52.368;9.966;2022-12-01T06:02:59;2.50;99.90
13744;DHT22;6943;52.368;9.966;2022-12-01T06:05:25;2.50;99.90
13744;DHT22;6943;52.368;9.966;2022-12-01T06:07:50;2.40;99.90
13744;DHT22;6943;52.368;9.966;2022-12-01T06:10:16;2.40;99.90
13744;DHT22;6943;52.368;9.966;2022-12-01T06:12:41;2.40;99.90
13744;DHT22;6943;52.368;9.966;2022-12-01T06:15:07;2.40;99.90
13744;DHT22;6943;52.368;9.966;2022-12-01T06:17:33;2.40;99.90
13744;DHT22;6943;52.368;9.966;2022-12-01T06:19:59;2.40;99.90
13744;DHT22;6943;52.368;9.966;2022-12-01T06:22:24;2.40;99.90
13744;DHT22;6943;52.368;9.966;2022-12-01T06:24:50;2.50;99.90
13744;DHT22;6943;52.368;9.966;2022-12-01T06:27:16;2.50;99.90
13744;DHT22;6943;52.368;9.966;2022-12-01T06:29:41;2.50;99.90
13744;DHT22;6943;52.368;9.966;2022-12-01T06:32:07;2.50;99.90
13744;DHT22;6943;52.368;9.966;2022-12-01T06:34:32;2.50;99.90
13744;DHT22;6943;52.368;9.966;2022-12-01T06:36:58;2.60;99.90
13744;DHT22;6943;52.368;9.966;2022-12-01T06:39:23;2.60;99.90
13744;DHT22;6943;52.368;9.966;2022-12-01T06:41:49;2.60;99.90
13744;DHT22;6943;52.368;9.966;2022-12-01T06:44:14;2.60;99.90
13744;DHT22;6943;52.368;9.966;2022-12-01T06:46:40;2.70;99.90
13744;DHT22;6943;52.368;9.966;2022-12-01T06:49:08;2.70;99.90
13744;DHT22;6943;52.368;9.966;2022-12-01T06:51:34;2.70;99.90
13744;DHT22;6943;52.368;9.966;2022-12-01T06:54:00;2.70;99.90
13744;DHT22;6943;52.368;9.966;2022-12-01T06:56:25;2.60;99.90
13744;DHT22;6943;52.368;9.966;2022-12-01T06:58:51;2.60;99.90
13744;DHT22;6943;52.368;9.966;2022-12-01T07:01:18;2.50;99.90
13744;DHT22;6943;52.368;9.966;2022-12-01T07:03:50;2.50;99.90
13744;DHT22;6943;52.368;9.966;2022-12-01T07:06:17;2.50;99.90
13744;DHT22;6943;52.368;9.966;2022-12-01T07:08:43;2.50;99.90
13744;DHT22;6943;52.368;9.966;2022-12-01T07:11:11;2.50;99.90
13744;DHT22;6943;52.368;9.966;2022-12-01T07:13:37;2.60;99.90
13744;DHT22;6943;52.368;9.966;2022-12-01T07:16:04;2.60;99.90
13744;DHT22;6943;52.368;9.966;2022-12-01T07:18:30;2.60;99.90
13744;DHT22;6943;52.368;9.966;2022-12-01T07:21:07;2.50;99.90
13744;DHT22;6943;52.368;9.966;2022-12-01T07:23:33;2.60;99.90
13744;DHT22;6943;52.368;9.966;2022-12-01T07:26:04;2.60;99.90
13744;DHT22;6943;52.368;9.966;2022-12-01T07:28:30;2.60;91.70
13744;DHT22;6943;52.368;9.966;2022-12-01T07:31:07;2.60;70.90
13744;DHT22;6943;52.368;9.966;2022-12-01T07:33:33;2.60;99.90
13744;DHT22;6943;52.368;9.966;2022-12-01T07:35:59;2.50;99.90
13744;DHT22;6943;52.368;9.966;2022-12-01T07:38:30;2.50;99.90
13744;DHT22;6943;52.368;9.966;2022-12-01T07:41:07;2.50;99.90
13744;DHT22;6943;52.368;9.966;2022-12-01T07:43:33;2.60;99.90
13744;DHT22;6943;52.368;9.966;2022-12-01T07:46:07;2.50;99.90
13744;DHT22;6943;52.368;9.966;2022-12-01T07:48:34;2.50;99.90
13744;DHT22;6943;52.368;9.966;2022-12-01T07:51:00;2.50;99.90
13744;DHT22;6943;52.368;9.966;2022-12-01T07:53:26;2.50;99.90
13744;DHT22;6943;52.368;9.966;2022-12-01T07:55:51;2.50;99.90
13744;DHT22;6943;52.368;9.966;2022-12-01T07:58:17;2.50;99.90
13744;DHT22;6943;52.368;9.966;2022-12-01T08:00:42;2.50;99.90
13744;DHT22;6943;52.368;9.966;2022-12-01T08:03:08;2.60;99.90
13744;DHT22;6943;52.368;9.966;2022-12-01T08:05:33;2.60;90.50
13744;DHT22;6943;52.368;9.966;2022-12-01T08:08:00;2.40;99.90
13744;DHT22;6943;52.368;9.966;2022-12-01T08:10:25;2.50;99.90
13744;DHT22;6943;52.368;9.966;2022-12-01T08:12:51;2.50;99.90
13744;DHT22;6943;52.368;9.966;2022-12-01T08:15:16;2.30;99.90
13744;DHT22;6943;52.368;9.966;2022-12-01T08:17:42;2.30;99.90
13744;DHT22;6943;52.368;9.966;2022-12-01T08:20:08;2.20;99.90
13744;DHT22;6943;52.368;9.966;2022-12-01T08:22:33;2.20;99.90
13744;DHT22;6943;52.368;9.966;2022-12-01T08:24:59;2.20;99.90
13744;DHT22;6943;52.368;9.966;2022-12-01T08:27:24;2.20;99.90
13744;DHT22;6943;52.368;9.966;2022-12-01T08:29:50;2.30;99.90
13744;DHT22;6943;52.368;9.966;2022-12-01T08:32:16;2.20;99.90
13744;DHT22;6943;52.368;9.966;2022-12-01T08:34:42;2.20;99.90
13744;DHT22;6943;52.368;9.966;2022-12-01T08:37:07;2.30;99.90
13744;DHT22;6943;52.368;9.966;2022-12-01T08:39:33;2.30;99.90
13744;DHT22;6943;52.368;9.966;2022-12-01T08:41:58;2.40;99.90
13744;DHT22;6943;52.368;9.966;2022-12-01T08:44:24;2.30;99.90
13744;DHT22;6943;52.368;9.966;2022-12-01T08:46:49;2.30;99.90
13744;DHT22;6943;52.368;9.966;2022-12-01T08:49:15;2.40;99.90
13744;DHT22;6943;52.368;9.966;2022-12-01T08:51:40;2.20;22.40
13744;DHT22;6943;52.368;9.966;2022-12-01T08:54:06;2.20;99.90
13744;DHT22;6943;52.368;9.966;2022-12-01T08:56:35;2.30;99.90
13744;DHT22;6943;52.368;9.966;2022-12-01T08:59:01;2.30;99.90
13744;DHT22;6943;52.368;9.966;2022-12-01T09:01:27;2.40;99.90
13744;DHT22;6943;52.368;9.966;2022-12-01T09:03:55;2.40;99.90
13744;DHT22;6943;52.368;9.966;2022-12-01T09:06:41;2.50;99.90
13744;DHT22;6943;52.368;9.966;2022-12-01T09:09:09;2.60;99.90
13744;DHT22;6943;52.368;9.966;2022-12-01T09:11:35;2.80;95.70
13744;DHT22;6943;52.368;9.966;2022-12-01T09:14:01;2.90;1.00
13744;DHT22;6943;52.368;9.966;2022-12-01T09:16:26;3.00;1.00
13744;DHT22;6943;52.368;9.966;2022-12-01T09:18:52;3.00;99.90
13744;DHT22;6943;52.368;9.966;2022-12-01T09:21:24;3.00;35.30
13744;DHT22;6943;52.368;9.966;2022-12-01T09:23:50;2.80;1.00
13744;DHT22;6943;52.368;9.966;2022-12-01T09:26:17;2.60;1.00
13744;DHT22;6943;52.368;9.966;2022-12-01T09:28:44;2.80;1.00
13744;DHT22;6943;52.368;9.966;2022-12-01T09:31:11;2.60;1.00
13744;DHT22;6943;52.368;9.966;2022-12-01T09:33:37;2.60;1.00
13744;DHT22;6943;52.368;9.966;2022-12-01T09:36:05;2.80;62.30
13744;DHT22;6943;52.368;9.966;2022-12-01T09:38:33;2.60;1.00
13744;DHT22;6943;52.368;9.966;2022-12-01T09:41:03;2.50;1.00
13744;DHT22;6943;52.368;9.966;2022-12-01T09:43:40;2.50;18.50
13744;DHT22;6943;52.368;9.966;2022-12-01T09:46:12;2.70;99.90
13744;DHT22;6943;52.368;9.966;2022-12-01T09:48:42;2.80;1.00
13744;DHT22;6943;52.368;9.966;2022-12-01T09:51:25;2.70;1.00
13744;DHT22;6943;52.368;9.966;2022-12-01T09:53:57;2.80;1.00
13744;DHT22;6943;52.368;9.966;2022-12-01T09:56:24;2.70;99.90
13744;DHT22;6943;52.368;9.966;2022-12-01T09:58:56;2.80;1.00
13744;DHT22;6943;52.368;9.966;2022-12-01T10:01:35;2.70;99.90
13744;DHT22;6943;52.368;9.966;2022-12-01T10:04:28;2.60;1.00
13744;DHT22;6943;52.368;9.966;2022-12-01T10:10:02;2.70;1.00
13744;DHT22;6943;52.368;9.966;2022-12-01T10:12:34;2.80;1.00
13744;DHT22;6943;52.368;9.966;2022-12-01T10:18:06;2.90;99.90
13744;DHT22;6943;52.368;9.966;2022-12-01T10:20:41;2.80;1.00
13744;DHT22;6943;52.368;9.966;2022-12-01T10:23:39;3.00;1.00
13744;DHT22;6943;52.368;9.966;2022-12-01T10:26:12;3.20;99.90
13744;DHT22;6943;52.368;9.966;2022-12-01T10:28:55;3.20;1.00
13744;DHT22;6943;52.368;9.966;2022-12-01T10:36:48;3.00;99.90
13744;DHT22;6943;52.368;9.966;2022-12-01T10:39:41;3.00;99.90
13744;DHT22;6943;52.368;9.966;2022-12-01T10:42:15;2.90;1.00
13744;DHT22;6943;52.368;9.966;2022-12-01T10:44:41;3.00;99.90
13744;DHT22;6943;52.368;9.966;2022-12-01T10:47:25;3.00;99.90
13744;DHT22;6943;52.368;9.966;2022-12-01T10:49:52;3.20;1.00
13744;DHT22;6943;52.368;9.966;2022-12-01T10:54:59;3.60;1.00
13744;DHT22;6943;52.368;9.966;2022-12-01T10:57:26;3.60;99.90
13744;DHT22;6943;52.368;9.966;2022-12-01T11:00:06;3.90;1.00
13744;DHT22;6943;52.368;9.966;2022-12-01T11:02:34;4.20;99.90
13744;DHT22;6943;52.368;9.966;2022-12-01T11:05:03;4.10;1.00
13744;DHT22;6943;52.368;9.966;2022-12-01T11:07:41;3.90;1.00
13744;DHT22;6943;52.368;9.966;2022-12-01T11:10:27;3.80;1.00
13744;DHT22;6943;52.368;9.966;2022-12-01T11:13:05;3.70;99.90
13744;DHT22;6943;52.368;9.966;2022-12-01T11:15:37;3.70;1.00
13744;DHT22;6943;52.368;9.966;2022-12-01T11:18:19;3.70;1.00
13744;DHT22;6943;52.368;9.966;2022-12-01T11:20:46;3.90;1.00
13744;DHT22;6943;52.368;9.966;2022-12-01T11:29:02;3.50;99.90
13744;DHT22;6943;52.368;9.966;2022-12-01T11:31:55;3.30;1.00
13744;DHT22;6943;52.368;9.966;2022-12-01T11:36:57;3.30;1.00
13744;DHT22;6943;52.368;9.966;2022-12-01T11:39:29;3.50;99.90
13744;DHT22;6943;52.368;9.966;2022-12-01T11:44:36;3.50;1.00
13744;DHT22;6943;52.368;9.966;2022-12-01T11:47:31;3.50;1.00
13744;DHT22;6943;52.368;9.966;2022-12-01T11:50:01;3.40;1.00
13744;DHT22;6943;52.368;9.966;2022-12-01T11:55:39;3.30;1.00
13744;DHT22;6943;52.368;9.966;2022-12-01T11:57:48;3.30;1.00
13744;DHT22;6943;52.368;9.966;2022-12-01T12:00:17;3.30;1.00
13744;DHT22;6943;52.368;9.966;2022-12-01T12:05:38;3.20;1.00
13744;DHT22;6943;52.368;9.966;2022-12-01T12:08:16;3.10;1.00
13744;DHT22;6943;52.368;9.966;2022-12-01T12:11:00;3.20;1.00
13744;DHT22;6943;52.368;9.966;2022-12-01T12:13:41;3.40;1.00
13744;DHT22;6943;52.368;9.966;2022-12-01T12:25:14;4.00;99.90
13744;DHT22;6943;52.368;9.966;2022-12-01T12:33:57;4.00;99.90
13744;DHT22;6943;52.368;9.966;2022-12-01T12:41:49;3.80;1.00
13744;DHT22;6943;52.368;9.966;2022-12-01T12:48:02;3.80;99.90
13744;DHT22;6943;52.368;9.966;2022-12-01T12:50:42;3.60;1.00
13744;DHT22;6943;52.368;9.966;2022-12-01T12:53:14;3.70;1.00
13744;DHT22;6943;52.368;9.966;2022-12-01T12:55:45;3.80;99.90
13744;DHT22;6943;52.368;9.966;2022-12-01T12:58:28;3.80;1.00
13744;DHT22;6943;52.368;9.966;2022-12-01T13:01:45;3.50;1.00
13744;DHT22;6943;52.368;9.966;2022-12-01T13:04:15;3.40;1.00
13744;DHT22;6943;52.368;9.966;2022-12-01T13:07:00;3.50;1.00
13744;DHT22;6943;52.368;9.966;2022-12-01T13:09:41;3.50;99.90
13744;DHT22;6943;52.368;9.966;2022-12-01T13:12:38;3.50;1.00
13744;DHT22;6943;52.368;9.966;2022-12-01T13:17:41;3.60;1.00
13744;DHT22;6943;52.368;9.966;2022-12-01T13:20:15;3.70;1.00
13744;DHT22;6943;52.368;9.966;2022-12-01T13:22:43;3.70;1.00
13744;DHT22;6943;52.368;9.966;2022-12-01T13:25:13;3.80;4.90
13744;DHT22;6943;52.368;9.966;2022-12-01T13:27:41;3.80;77.70
13744;DHT22;6943;52.368;9.966;2022-12-01T13:30:20;3.70;99.90
13744;DHT22;6943;52.368;9.966;2022-12-01T13:32:47;3.50;99.90
13744;DHT22;6943;52.368;9.966;2022-12-01T13:35:31;3.50;99.90
13744;DHT22;6943;52.368;9.966;2022-12-01T13:38:36;3.40;99.90
13744;DHT22;6943;52.368;9.966;2022-12-01T13:41:25;3.30;1.00
13744;DHT22;6943;52.368;9.966;2022-12-01T13:52:25;3.30;1.00
13744;DHT22;6943;52.368;9.966;2022-12-01T13:57:43;3.10;1.00
13744;DHT22;6943;52.368;9.966;2022-12-01T14:00:28;3.20;1.00
13744;DHT22;6943;52.368;9.966;2022-12-01T14:08:15;3.30;99.90
13744;DHT22;6943;52.368;9.966;2022-12-01T14:10:57;3.30;1.00
13744;DHT22;6943;52.368;9.966;2022-12-01T14:13:24;3.50;1.00
13744;DHT22;6943;52.368;9.966;2022-12-01T14:15:57;3.30;1.00
13744;DHT22;6943;52.368;9.966;2022-12-01T14:20:59;3.20;1.00
13744;DHT22;6943;52.368;9.966;2022-12-01T14:23:31;3.20;1.00
13744;DHT22;6943;52.368;9.966;2022-12-01T14:26:17;3.30;1.00
13744;DHT22;6943;52.368;9.966;2022-12-01T14:34:11;3.30;99.90
13744;DHT22;6943;52.368;9.966;2022-12-01T14:36:43;3.30;1.00
13744;DHT22;6943;52.368;9.966;2022-12-01T14:41:48;3.30;1.00
13744;DHT22;6943;52.368;9.966;2022-12-01T14:44:35;3.40;1.00
13744;DHT22;6943;52.368;9.966;2022-12-01T14:47:07;3.30;1.00
13744;DHT22;6943;52.368;9.966;2022-12-01T14:52:32;3.20;99.90
13744;DHT22;6943;52.368;9.966;2022-12-01T14:55:03;3.10;1.00
13744;DHT22;6943;52.368;9.966;2022-12-01T14:57:36;3.30;1.00
13744;DHT22;6943;52.368;9.966;2022-12-01T15:00:06;3.30;1.00
13744;DHT22;6943;52.368;9.966;2022-12-01T15:02:32;3.30;99.90
13744;DHT22;6943;52.368;9.966;2022-12-01T15:05:16;3.30;1.00
13744;DHT22;6943;52.368;9.966;2022-12-01T15:07:46;3.10;1.00
13744;DHT22;6943;52.368;9.966;2022-12-01T15:10:32;3.10;1.00
13744;DHT22;6943;52.368;9.966;2022-12-01T15:13:23;3.10;99.90
13744;DHT22;6943;52.368;9.966;2022-12-01T15:18:29;3.10;99.90
13744;DHT22;6943;52.368;9.966;2022-12-01T15:21:15;3.10;1.00
13744;DHT22;6943;52.368;9.966;2022-12-01T15:26:31;3.20;1.00
13744;DHT22;6943;52.368;9.966;2022-12-01T15:29:23;3.20;60.40
13744;DHT22;6943;52.368;9.966;2022-12-01T15:31:52;3.00;99.90
13744;DHT22;6943;52.368;9.966;2022-12-01T15:34:21;2.90;1.00
13744;DHT22;6943;52.368;9.966;2022-12-01T15:36:47;2.80;99.90
13744;DHT22;6943;52.368;9.966;2022-12-01T15:39:16;2.80;1.00
13744;DHT22;6943;52.368;9.966;2022-12-01T15:41:43;2.90;99.90
13744;DHT22;6943;52.368;9.966;2022-12-01T15:44:22;2.90;99.90
13744;DHT22;6943;52.368;9.966;2022-12-01T15:46:50;2.80;1.00
13744;DHT22;6943;52.368;9.966;2022-12-01T15:51:51;2.90;99.90
13744;DHT22;6943;52.368;9.966;2022-12-01T15:54:22;2.90;1.00
13744;DHT22;6943;52.368;9.966;2022-12-01T15:56:55;2.80;1.00
13744;DHT22;6943;52.368;9.966;2022-12-01T15:59:24;2.80;1.00
13744;DHT22;6943;52.368;9.966;2022-12-01T16:04:27;2.70;1.00
13744;DHT22;6943;52.368;9.966;2022-12-01T16:06:57;2.80;1.00
13744;DHT22;6943;52.368;9.966;2022-12-01T16:09:34;2.70;1.00
13744;DHT22;6943;52.368;9.966;2022-12-01T16:12:19;2.80;1.00
13744;DHT22;6943;52.368;9.966;2022-12-01T16:14:50;2.80;1.00
13744;DHT22;6943;52.368;9.966;2022-12-01T16:17:16;2.80;1.00
13744;DHT22;6943;52.368;9.966;2022-12-01T16:19:42;2.80;1.00
13744;DHT22;6943;52.368;9.966;2022-12-01T16:24:36;2.70;1.00
13744;DHT22;6943;52.368;9.966;2022-12-01T16:27:25;2.70;1.00
13744;DHT22;6943;52.368;9.966;2022-12-01T16:32:37;2.70;1.00
13744;DHT22;6943;52.368;9.966;2022-12-01T16:35:26;2.60;69.70
13744;DHT22;6943;52.368;9.966;2022-12-01T16:37:51;2.70;91.50
13744;DHT22;6943;52.368;9.966;2022-12-01T16:40:16;2.70;99.90
13744;DHT22;6943;52.368;9.966;2022-12-01T16:42:42;2.70;99.90
13744;DHT22;6943;52.368;9.966;2022-12-01T16:45:12;2.80;99.90
13744;DHT22;6943;52.368;9.966;2022-12-01T16:47:43;2.80;91.30
13744;DHT22;6943;52.368;9.966;2022-12-01T16:50:16;2.80;99.90
13744;DHT22;6943;52.368;9.966;2022-12-01T16:52:42;2.70;99.90
13744;DHT22;6943;52.368;9.966;2022-12-01T16:55:37;2.70;99.90
13744;DHT22;6943;52.368;9.966;2022-12-01T16:58:05;2.80;99.90
13744;DHT22;6943;52.368;9.966;2022-12-01T17:00:31;2.70;99.90
13744;DHT22;6943;52.368;9.966;2022-12-01T17:02:57;2.80;99.90
13744;DHT22;6943;52.368;9.966;2022-12-01T17:05:23;2.60;91.00
13744;DHT22;6943;52.368;9.966;2022-12-01T17:07:49;2.60;99.90
13744;DHT22;6943;52.368;9.966;2022-12-01T17:10:15;2.60;99.90
13744;DHT22;6943;52.368;9.966;2022-12-01T17:12:41;2.70;91.80
13744;DHT22;6943;52.368;9.966;2022-12-01T17:15:07;2.70;99.40
13744;DHT22;6943;52.368;9.966;2022-12-01T17:17:32;2.60;16.30
13744;DHT22;6943;52.368;9.966;2022-12-01T17:19:58;2.60;47.60
13744;DHT22;6943;52.368;9.966;2022-12-01T17:22:23;2.60;91.70
13744;DHT22;6943;52.368;9.966;2022-12-01T17:24:49;2.60;99.90
13744;DHT22;6943;52.368;9.966;2022-12-01T17:27:14;2.50;93.60
13744;DHT22;6943;52.368;9.966;2022-12-01T17:29:40;2.50;99.90
13744;DHT22;6943;52.368;9.966;2022-12-01T17:32:06;2.50;99.90
13744;DHT22;6943;52.368;9.966;2022-12-01T17:34:33;2.60;99.90
13744;DHT22;6943;52.368;9.966;2022-12-01T17:36:59;2.60;99.90
13744;DHT22;6943;52.368;9.966;2022-12-01T17:39:24;2.70;82.90
13744;DHT22;6943;52.368;9.966;2022-12-01T17:41:53;2.50;99.90
13744;DHT22;6943;52.368;9.966;2022-12-01T17:44:18;2.50;99.90
13744;DHT22;6943;52.368;9.966;2022-12-01T17:46:44;2.50;99.90
13744;DHT22;6943;52.368;9.966;2022-12-01T17:49:09;2.60;99.90
13744;DHT22;6943;52.368;9.966;2022-12-01T17:51:36;2.60;86.80
13744;DHT22;6943;52.368;9.966;2022-12-01T17:54:01;2.50;99.90
13744;DHT22;6943;52.368;9.966;2022-12-01T17:56:27;2.50;99.90
13744;DHT22;6943;52.368;9.966;2022-12-01T17:58:52;2.50;99.90
13744;DHT22;6943;52.368;9.966;2022-12-01T18:01:20;2.50;99.90
13744;DHT22;6943;52.368;9.966;2022-12-01T18:03:46;2.40;99.90
13744;DHT22;6943;52.368;9.966;2022-12-01T18:06:13;2.50;99.90
13744;DHT22;6943;52.368;9.966;2022-12-01T18:08:39;2.60;99.90
13744;DHT22;6943;52.368;9.966;2022-12-01T18:11:06;2.50;99.90
13744;DHT22;6943;52.368;9.966;2022-12-01T18:13:35;2.50;99.90
13744;DHT22;6943;52.368;9.966;2022-12-01T18:16:12;2.50;99.90
13744;DHT22;6943;52.368;9.966;2022-12-01T18:18:38;2.50;99.90
13744;DHT22;6943;52.368;9.966;2022-12-01T18:21:05;2.50;99.90
13744;DHT22;6943;52.368;9.966;2022-12-01T18:23:31;2.50;99.90
13744;DHT22;6943;52.368;9.966;2022-12-01T18:26:02;2.60;99.90
13744;DHT22;6943;52.368;9.966;2022-12-01T18:28:28;2.60;99.90
13744;DHT22;6943;52.368;9.966;2022-12-01T18:30:54;2.60;99.90
13744;DHT22;6943;52.368;9.966;2022-12-01T18:33:19;2.50;99.90
13744;DHT22;6943;52.368;9.966;2022-12-01T18:35:45;2.60;99.90
13744;DHT22;6943;52.368;9.966;2022-12-01T18:38:11;2.50;99.90
13744;DHT22;6943;52.368;9.966;2022-12-01T18:40:37;2.60;99.90
13744;DHT22;6943;52.368;9.966;2022-12-01T18:43:03;2.80;99.90
13744;DHT22;6943;52.368;9.966;2022-12-01T18:45:28;2.60;99.90